createdAt,value
2019-02-18T00:01:47.448Z,37.65
2019-02-18T00:04:15.572Z,33.55
2019-02-18T00:06:43.612Z,32.95
2019-02-18T00:09:11.636Z,32.03
2019-02-18T00:11:39.688Z,30.17
2019-02-18T00:14:07.724Z,32.80
2019-02-18T00:16:35.998Z,31.85
2019-02-18T00:19:04.040Z,36.93
2019-02-18T00:21:32.069Z,33.02
2019-02-18T00:24:00.105Z,32.33
2019-02-18T00:26:28.156Z,32.38
2019-02-18T00:28:56.444Z,38.08
2019-02-18T00:31:24.474Z,36.50
2019-02-18T00:33:53.480Z,36.20
2019-02-18T00:36:21.547Z,35.08
2019-02-18T00:38:49.577Z,36.63
2019-02-18T00:41:18.580Z,36.65
2019-02-18T00:43:46.611Z,36.58
2019-02-18T00:46:14.646Z,36.10
2019-02-18T00:48:42.667Z,34.85
2019-02-18T00:51:10.703Z,36.75
2019-02-18T00:53:38.980Z,32.75
2019-02-18T00:56:07.025Z,32.93
2019-02-18T00:58:35.048Z,34.35
2019-02-18T01:01:03.092Z,34.65
2019-02-18T01:03:31.117Z,32.90
2019-02-18T01:05:59.144Z,34.50
2019-02-18T01:08:27.171Z,31.17
2019-02-18T01:10:55.532Z,27.62
2019-02-18T01:13:23.565Z,30.65
2019-02-18T01:15:51.840Z,34.15
2019-02-18T01:18:19.876Z,30.77
2019-02-18T01:20:47.899Z,36.38
2019-02-18T01:23:15.941Z,38.23
2019-02-18T01:25:43.965Z,33.78
2019-02-18T01:28:12.236Z,33.73
2019-02-18T01:30:40.493Z,32.20
2019-02-18T01:33:08.528Z,36.48
2019-02-18T01:35:36.792Z,33.10
2019-02-18T01:38:04.874Z,34.05
2019-02-18T01:40:32.916Z,36.10
2019-02-18T01:43:00.956Z,32.67
2019-02-18T01:45:29.324Z,36.95
2019-02-18T01:47:57.351Z,39.15
2019-02-18T01:50:25.392Z,34.43
2019-02-18T01:52:53.433Z,34.58
2019-02-18T01:55:21.478Z,39.20
2019-02-18T01:57:49.510Z,37.65
2019-02-18T02:00:17.792Z,34.60
2019-02-18T02:02:45.997Z,38.00
2019-02-18T02:11:47.786Z,34.18
2019-02-18T02:14:16.288Z,34.18
2019-02-18T02:16:44.867Z,34.18
2019-02-18T02:19:13.283Z,35.15
2019-02-18T02:21:41.839Z,37.30
2019-02-18T02:24:10.397Z,31.52
2019-02-18T02:26:38.853Z,37.70
2019-02-18T02:29:07.372Z,31.95
2019-02-18T02:31:35.853Z,30.17
2019-02-18T02:34:04.408Z,32.33
2019-02-18T02:36:32.914Z,29.48
2019-02-18T02:39:01.021Z,31.95
2019-02-18T02:41:30.740Z,33.88
2019-02-18T02:43:59.019Z,29.67
2019-02-18T02:46:27.041Z,30.10
2019-02-18T02:48:55.097Z,27.73
2019-02-18T02:51:23.124Z,34.18
2019-02-18T02:53:51.188Z,29.52
2019-02-18T02:56:19.225Z,35.43
2019-02-18T02:58:47.265Z,28.77
2019-02-18T03:01:15.295Z,29.00
2019-02-18T03:03:43.324Z,33.40
2019-02-18T03:06:11.360Z,33.63
2019-02-18T03:08:40.345Z,26.50
2019-02-18T03:11:08.618Z,28.00
2019-02-18T03:13:36.634Z,30.37
2019-02-18T03:16:04.678Z,33.35
2019-02-18T03:18:32.699Z,32.85
2019-02-18T03:21:00.763Z,32.90
2019-02-18T03:23:28.798Z,28.12
2019-02-18T03:25:56.824Z,27.55
2019-02-18T03:28:32.424Z,32.20
2019-02-18T03:31:05.117Z,27.48
2019-02-18T03:33:37.380Z,27.85
2019-02-18T03:36:05.397Z,29.82
2019-02-18T03:38:33.422Z,27.60
2019-02-18T03:41:03.423Z,28.15
2019-02-18T03:43:31.256Z,35.60
2019-02-18T03:45:59.293Z,31.17
2019-02-18T03:48:27.316Z,30.88
2019-02-18T03:50:55.348Z,23.00
2019-02-18T03:53:23.379Z,28.73
2019-02-18T03:55:51.420Z,29.70
2019-02-18T03:58:19.440Z,28.77
2019-02-18T04:00:47.712Z,28.65
2019-02-18T04:03:15.744Z,27.55
2019-02-18T04:05:44.089Z,27.65
2019-02-18T04:08:12.363Z,31.40
2019-02-18T04:10:40.395Z,25.45
2019-02-18T04:13:08.446Z,25.92
2019-02-18T04:15:36.476Z,25.17
2019-02-18T04:18:04.501Z,30.88
2019-02-18T04:20:32.537Z,24.87
2019-02-18T04:23:00.583Z,23.38
2019-02-18T04:25:28.622Z,28.83
2019-02-18T04:27:56.660Z,29.70
2019-02-18T04:30:24.688Z,27.58
2019-02-18T04:32:52.724Z,24.95
2019-02-18T04:35:20.763Z,24.25
2019-02-18T04:37:48.806Z,29.72
2019-02-18T04:40:16.874Z,29.37
2019-02-18T04:42:44.904Z,27.70
2019-02-18T04:45:13.007Z,26.75
2019-02-18T04:47:41.037Z,25.95
2019-02-18T04:50:09.068Z,24.80
2019-02-18T04:52:37.099Z,25.02
2019-02-18T04:55:06.649Z,26.12
2019-02-18T04:57:34.684Z,23.30
2019-02-18T05:00:02.709Z,23.95
2019-02-18T05:02:31.032Z,25.95
2019-02-18T05:04:59.082Z,24.27
2019-02-18T05:07:27.370Z,27.55
2019-02-18T05:09:55.424Z,28.35
2019-02-18T05:12:23.460Z,27.62
2019-02-18T05:14:51.484Z,29.87
2019-02-18T05:17:19.545Z,28.02
2019-02-18T05:19:47.572Z,34.67
2019-02-18T05:22:15.604Z,35.33
2019-02-18T05:24:43.647Z,36.33
2019-02-18T05:27:11.700Z,34.80
2019-02-18T05:29:39.745Z,35.70
2019-02-18T05:32:07.786Z,44.08
2019-02-18T05:34:35.852Z,35.13
2019-02-18T05:37:03.888Z,38.92
2019-02-18T05:39:31.934Z,34.43
2019-02-18T05:41:59.962Z,44.65
2019-02-18T05:44:27.979Z,36.33
2019-02-18T05:46:56.023Z,37.85
2019-02-18T05:49:24.041Z,36.30
2019-02-18T05:51:52.078Z,39.35
2019-02-18T05:54:20.098Z,43.78
2019-02-18T05:56:48.111Z,44.85
2019-02-18T05:59:16.143Z,39.18
2019-02-18T06:01:44.170Z,35.88
2019-02-18T06:04:12.182Z,40.48
2019-02-18T06:06:40.210Z,36.28
2019-02-18T06:09:08.221Z,33.48
2019-02-18T06:11:36.248Z,41.23
2019-02-18T06:14:04.279Z,37.80
2019-02-18T06:16:32.301Z,34.78
2019-02-18T06:19:00.320Z,38.73
2019-02-18T06:21:28.347Z,34.30
2019-02-18T06:23:56.377Z,34.83
2019-02-18T06:26:24.399Z,34.30
2019-02-18T06:28:52.647Z,36.05
2019-02-18T06:31:20.671Z,32.88
2019-02-18T06:33:48.702Z,35.13
2019-02-18T06:36:16.711Z,35.40
2019-02-18T06:38:44.749Z,40.30
2019-02-18T06:41:12.840Z,33.23
2019-02-18T06:43:40.863Z,34.92
2019-02-18T06:46:10.511Z,38.38
2019-02-18T06:48:40.179Z,39.03
2019-02-18T06:51:08.197Z,41.35
2019-02-18T06:53:36.226Z,39.23
2019-02-18T06:56:04.251Z,39.00
2019-02-18T06:58:33.906Z,39.80
2019-02-18T07:01:03.803Z,49.38
2019-02-18T07:03:51.758Z,42.93
2019-02-18T07:06:24.289Z,38.90
2019-02-18T07:08:59.492Z,33.90
2019-02-18T07:11:32.163Z,38.63
2019-02-18T07:14:00.203Z,29.55
2019-02-18T07:16:28.247Z,27.77
2019-02-18T07:18:56.536Z,28.05
2019-02-18T07:21:24.635Z,26.62
2019-02-18T07:24:07.872Z,27.22
2019-02-18T07:26:35.912Z,26.90
2019-02-18T07:29:03.964Z,27.50
2019-02-18T07:31:32.018Z,24.67
2019-02-18T07:34:00.296Z,23.95
2019-02-18T07:36:28.326Z,25.88
2019-02-18T07:38:56.776Z,24.02
2019-02-18T07:41:25.040Z,23.22
2019-02-18T07:43:53.325Z,21.97
2019-02-18T07:46:21.364Z,24.10
2019-02-18T07:48:49.408Z,24.65
2019-02-18T07:51:17.760Z,23.67
2019-02-18T07:53:45.826Z,24.27
2019-02-18T07:56:13.921Z,21.87
2019-02-18T07:58:41.963Z,22.22
2019-02-18T08:01:10.228Z,20.65
2019-02-18T08:03:38.282Z,21.40
2019-02-18T08:06:06.338Z,19.07
2019-02-18T08:08:34.374Z,23.35
2019-02-18T08:11:02.435Z,18.55
2019-02-18T08:13:30.536Z,19.23
2019-02-18T08:15:58.832Z,20.35
2019-02-18T08:18:26.851Z,19.92
2019-02-18T08:20:54.870Z,21.37
2019-02-18T08:23:23.137Z,20.52
2019-02-18T08:25:51.171Z,24.15
2019-02-18T08:28:33.487Z,23.95
2019-02-18T08:31:01.761Z,22.70
2019-02-18T08:33:29.939Z,23.87
2019-02-18T08:35:57.972Z,23.00
2019-02-18T08:38:26.243Z,21.62
2019-02-18T08:40:54.282Z,22.17
2019-02-18T08:43:22.299Z,23.98
2019-02-18T08:45:50.415Z,25.25
2019-02-18T08:48:18.448Z,22.75
2019-02-18T08:50:46.484Z,23.77
2019-02-18T08:53:14.503Z,26.05
2019-02-18T08:55:42.534Z,24.18
2019-02-18T08:58:10.592Z,25.68
2019-02-18T09:00:38.619Z,24.67
2019-02-18T09:03:06.651Z,22.07
2019-02-18T09:05:34.936Z,21.87
2019-02-18T09:08:03.949Z,23.85
2019-02-18T09:10:33.875Z,25.57
2019-02-18T09:13:01.718Z,22.65
2019-02-18T09:15:29.772Z,23.90
2019-02-18T09:17:57.805Z,25.10
2019-02-18T09:20:26.074Z,27.00
2019-02-18T09:22:56.675Z,28.75
2019-02-18T09:25:32.416Z,26.25
2019-02-18T09:28:00.440Z,25.85
2019-02-18T09:30:30.335Z,29.67
2019-02-18T09:33:07.501Z,29.23
2019-02-18T09:35:35.516Z,29.60
2019-02-18T09:38:03.547Z,30.32
2019-02-18T09:40:31.563Z,30.27
2019-02-18T09:42:59.591Z,33.75
2019-02-18T09:45:29.592Z,31.85
2019-02-18T09:47:57.620Z,32.13
2019-02-18T09:50:25.640Z,31.62
2019-02-18T09:52:53.656Z,29.40
2019-02-18T09:55:21.681Z,29.52
2019-02-18T09:57:49.711Z,24.52
2019-02-18T10:00:17.979Z,27.32
2019-02-18T10:02:45.999Z,24.87
2019-02-18T10:05:14.261Z,26.85
2019-02-18T10:07:42.290Z,28.05
2019-02-18T10:10:10.716Z,26.52
2019-02-18T10:12:38.822Z,24.25
2019-02-18T10:15:09.447Z,26.17
2019-02-18T10:17:37.543Z,24.52
2019-02-18T10:20:07.107Z,26.12
2019-02-18T10:22:36.103Z,28.27
2019-02-18T10:25:04.703Z,24.07
2019-02-18T10:27:32.830Z,23.98
2019-02-18T10:30:01.109Z,24.35
2019-02-18T10:32:29.203Z,22.55
2019-02-18T10:34:57.227Z,21.68
2019-02-18T10:37:26.323Z,23.22
2019-02-18T10:39:54.352Z,22.17
2019-02-18T10:42:22.375Z,22.22
2019-02-18T10:44:50.421Z,23.22
2019-02-18T10:47:18.624Z,24.23
2019-02-18T10:49:46.639Z,24.15
2019-02-18T10:52:14.898Z,22.52
2019-02-18T10:54:43.149Z,22.62
2019-02-18T10:57:11.167Z,23.42
2019-02-18T10:59:42.398Z,22.70
2019-02-18T11:02:10.971Z,20.48
2019-02-18T11:04:38.989Z,21.90
2019-02-18T11:07:07.011Z,19.85
2019-02-18T11:09:35.041Z,20.35
2019-02-18T11:12:03.059Z,21.15
2019-02-18T11:14:31.324Z,18.95
2019-02-18T11:16:59.348Z,14.87
2019-02-18T11:19:27.607Z,19.25
2019-02-18T11:21:55.621Z,16.27
2019-02-18T11:24:23.660Z,19.17
2019-02-18T11:26:52.057Z,18.80
2019-02-18T11:29:20.088Z,18.30
2019-02-18T11:31:48.135Z,15.95
2019-02-18T11:34:16.153Z,15.08
2019-02-18T11:36:44.189Z,13.83
2019-02-18T11:39:12.483Z,13.38
2019-02-18T11:41:41.051Z,12.82
2019-02-18T11:44:09.073Z,13.25
2019-02-18T11:46:37.091Z,10.75
2019-02-18T11:49:05.092Z,9.85
2019-02-18T11:51:33.119Z,9.28
2019-02-18T11:54:01.127Z,11.08
2019-02-18T11:56:29.209Z,11.15
2019-02-18T11:58:57.228Z,9.63
2019-02-18T12:01:25.243Z,10.63
2019-02-18T12:03:53.267Z,10.60
2019-02-18T12:06:21.315Z,10.20
2019-02-18T12:08:49.332Z,9.70
2019-02-18T12:11:17.344Z,8.50
2019-02-18T12:13:45.749Z,10.43
2019-02-18T12:16:13.759Z,11.28
2019-02-18T12:18:41.768Z,10.90
2019-02-18T12:21:09.795Z,11.30
2019-02-18T12:23:37.831Z,11.15
2019-02-18T12:26:06.068Z,12.05
2019-02-18T12:28:34.094Z,13.48
2019-02-18T12:31:02.117Z,11.83
2019-02-18T12:33:30.352Z,10.88
2019-02-18T12:35:58.389Z,13.18
2019-02-18T12:38:26.433Z,12.55
2019-02-18T12:40:54.472Z,10.03
2019-02-18T12:43:22.501Z,10.38
2019-02-18T12:45:50.536Z,11.38
2019-02-18T12:48:18.731Z,11.18
2019-02-18T12:50:47.077Z,10.93
2019-02-18T12:53:15.119Z,14.50
2019-02-18T12:55:43.244Z,11.15
2019-02-18T12:58:11.488Z,13.50
2019-02-18T13:00:39.515Z,11.22
2019-02-18T13:03:07.556Z,12.98
2019-02-18T13:05:35.666Z,11.35
2019-02-18T13:08:04.077Z,12.10
2019-02-18T13:10:34.935Z,12.33
2019-02-18T13:13:02.078Z,9.93
2019-02-18T13:15:30.144Z,10.58
2019-02-18T13:17:58.160Z,12.80
2019-02-18T13:20:26.171Z,12.63
2019-02-18T13:22:54.192Z,9.03
2019-02-18T13:25:22.214Z,13.48
2019-02-18T13:27:50.411Z,11.12
2019-02-18T13:30:19.561Z,11.63
2019-02-18T13:32:47.598Z,10.45
2019-02-18T13:35:15.704Z,11.33
2019-02-18T13:37:43.736Z,9.15
2019-02-18T13:40:13.384Z,9.78
2019-02-18T13:42:41.781Z,11.97
2019-02-18T13:45:12.459Z,11.38
2019-02-18T13:47:40.499Z,13.83
2019-02-18T13:50:13.473Z,10.88
2019-02-18T13:52:41.725Z,10.98
2019-02-18T13:55:15.762Z,10.82
2019-02-18T13:57:44.808Z,13.70
2019-02-18T14:00:18.282Z,13.95
2019-02-18T14:02:46.644Z,9.90
2019-02-18T14:05:14.785Z,14.25
2019-02-18T14:07:42.816Z,12.43
2019-02-18T14:10:11.185Z,11.40
2019-02-18T14:12:39.391Z,13.10
2019-02-18T14:15:09.387Z,14.10
2019-02-18T14:17:37.490Z,12.82
2019-02-18T14:20:09.343Z,11.55
2019-02-18T14:22:37.372Z,12.50
2019-02-18T14:25:06.521Z,14.40
2019-02-18T14:27:34.739Z,15.08
2019-02-18T14:30:03.823Z,18.00
2019-02-18T14:32:32.876Z,21.50
2019-02-18T14:35:01.274Z,16.42
2019-02-18T14:37:30.372Z,16.23
2019-02-18T14:39:58.616Z,13.45
2019-02-18T14:42:27.292Z,15.88
2019-02-18T14:44:55.933Z,14.68
2019-02-18T14:47:25.673Z,16.02
2019-02-18T14:49:53.736Z,17.92
2019-02-18T14:52:21.978Z,16.70
2019-02-18T14:54:50.023Z,15.35
2019-02-18T14:57:19.801Z,20.82
2019-02-18T14:59:48.092Z,19.85
2019-02-18T15:02:16.136Z,18.98
2019-02-18T15:04:44.200Z,17.45
2019-02-18T15:07:13.225Z,20.05
2019-02-18T15:09:41.276Z,18.25
2019-02-18T15:12:09.404Z,15.25
2019-02-18T15:14:38.020Z,17.82
2019-02-18T15:17:06.349Z,19.35
2019-02-18T15:19:34.388Z,16.25
2019-02-18T15:22:02.720Z,17.40
2019-02-18T15:24:30.811Z,17.48
2019-02-18T15:26:58.856Z,17.05
2019-02-18T15:29:27.117Z,18.15
2019-02-18T15:31:55.166Z,18.17
2019-02-18T15:34:23.232Z,21.48
2019-02-18T15:36:51.592Z,22.65
2019-02-18T15:39:19.637Z,21.07
2019-02-18T15:41:47.912Z,18.50
2019-02-18T15:44:16.018Z,22.55
2019-02-18T15:46:44.421Z,19.90
2019-02-18T15:49:12.467Z,21.55
2019-02-18T15:51:40.732Z,27.98
2019-02-18T15:54:10.060Z,25.88
2019-02-18T15:56:38.079Z,25.80
2019-02-18T15:59:09.339Z,30.97
2019-02-18T16:01:37.928Z,20.92
2019-02-18T16:04:05.997Z,20.62
2019-02-18T16:06:34.079Z,22.25
2019-02-18T16:09:02.115Z,20.35
2019-02-18T16:11:31.747Z,23.73
2019-02-18T16:13:59.927Z,20.43
2019-02-18T16:16:28.709Z,22.05
2019-02-18T16:18:59.566Z,19.10
2019-02-18T16:21:27.599Z,21.48
2019-02-18T16:23:55.624Z,19.42
2019-02-18T16:26:23.710Z,19.98
2019-02-18T16:28:51.973Z,18.75
2019-02-18T16:31:20.063Z,20.85
2019-02-18T16:33:48.312Z,20.57
2019-02-18T16:36:17.555Z,25.05
2019-02-18T16:38:45.567Z,24.95
2019-02-18T16:41:13.606Z,19.70
2019-02-18T16:43:41.856Z,19.55
2019-02-18T16:46:09.948Z,22.55
2019-02-18T16:48:38.422Z,23.67
2019-02-18T16:51:06.451Z,22.60
2019-02-18T16:53:34.469Z,23.98
2019-02-18T16:56:02.500Z,22.10
2019-02-18T16:58:30.547Z,24.43
2019-02-18T17:00:58.555Z,21.57
2019-02-18T17:03:26.611Z,19.85
2019-02-18T17:05:55.245Z,21.37
2019-02-18T17:08:23.291Z,22.13
2019-02-18T17:10:51.540Z,21.93
2019-02-18T17:13:19.563Z,24.20
2019-02-18T17:15:47.588Z,23.67
2019-02-18T17:18:15.619Z,21.70
2019-02-18T17:20:43.655Z,22.65
2019-02-18T17:23:12.303Z,26.48
2019-02-18T17:25:40.331Z,35.65
2019-02-18T17:28:08.349Z,42.38
2019-02-18T17:30:36.375Z,46.25
2019-02-18T17:33:04.632Z,41.50
2019-02-18T17:35:32.653Z,41.37
2019-02-18T17:38:00.667Z,33.08
2019-02-18T17:40:28.707Z,26.33
2019-02-18T17:42:56.967Z,19.98
2019-02-18T17:45:24.976Z,23.52
2019-02-18T17:47:53.013Z,31.15
2019-02-18T17:50:21.263Z,32.25
2019-02-18T17:52:49.306Z,28.67
2019-02-18T17:55:18.868Z,27.17
2019-02-18T17:57:46.920Z,25.48
2019-02-18T18:00:21.505Z,27.65
2019-02-18T18:02:49.716Z,26.95
2019-02-18T18:05:17.798Z,24.50
2019-02-18T18:07:46.058Z,23.07
2019-02-18T18:10:15.107Z,23.87
2019-02-18T18:12:43.179Z,25.27
2019-02-18T18:15:11.871Z,26.75
2019-02-18T18:17:40.133Z,39.75
2019-02-18T18:20:09.652Z,37.45
2019-02-18T18:22:38.811Z,28.52
2019-02-18T18:25:07.910Z,28.42
2019-02-18T18:27:35.926Z,24.20
2019-02-18T18:30:05.465Z,27.35
2019-02-18T18:32:34.557Z,20.32
2019-02-18T18:35:02.596Z,21.82
2019-02-18T18:37:32.463Z,24.23
2019-02-18T18:40:00.483Z,25.62
2019-02-18T18:42:29.492Z,27.95
2019-02-18T18:44:57.504Z,25.72
2019-02-18T18:47:25.551Z,21.87
2019-02-18T18:49:53.565Z,24.65
2019-02-18T18:52:21.601Z,26.65
2019-02-18T18:54:49.626Z,35.55
2019-02-18T18:57:18.032Z,32.20
2019-02-18T18:59:46.989Z,32.60
2019-02-18T19:02:15.029Z,36.03
2019-02-18T19:04:43.084Z,31.70
2019-02-18T19:07:11.332Z,28.55
2019-02-18T19:09:39.363Z,28.32
2019-02-18T19:12:07.375Z,29.18
2019-02-18T19:14:35.395Z,24.23
2019-02-18T19:17:03.423Z,22.37
2019-02-18T19:19:31.687Z,23.65
2019-02-18T19:21:59.700Z,23.38
2019-02-18T19:24:27.719Z,25.12
2019-02-18T19:26:55.976Z,31.35
2019-02-18T19:29:24.176Z,29.90
2019-02-18T19:31:52.195Z,28.73
2019-02-18T19:34:20.226Z,28.47
2019-02-18T19:36:48.259Z,27.87
2019-02-18T19:39:16.288Z,28.90
2019-02-18T19:41:44.551Z,31.00
2019-02-18T19:44:12.947Z,32.50
2019-02-18T19:46:40.986Z,36.83
2019-02-18T19:49:09.014Z,35.00
2019-02-18T19:51:37.051Z,33.75
2019-02-18T19:54:05.299Z,36.30
2019-02-18T19:56:33.559Z,34.83
2019-02-18T19:59:01.583Z,32.50
2019-02-18T20:01:29.599Z,30.10
2019-02-18T20:03:57.631Z,33.10
2019-02-18T20:06:25.659Z,30.37
2019-02-18T20:08:54.651Z,29.32
2019-02-18T20:11:22.682Z,26.62
2019-02-18T20:13:58.544Z,31.10
2019-02-18T20:16:20.476Z,27.45
2019-02-18T20:18:48.496Z,32.67
2019-02-18T20:21:17.480Z,26.45
2019-02-18T20:23:47.483Z,26.90
2019-02-18T20:26:16.498Z,24.65
2019-02-18T20:28:44.547Z,25.37
2019-02-18T20:31:12.836Z,27.20
2019-02-18T20:33:40.868Z,27.95
2019-02-18T20:36:11.392Z,32.63
2019-02-18T20:38:39.469Z,30.40
2019-02-18T20:41:07.576Z,32.88
2019-02-18T20:43:37.029Z,29.95
2019-02-18T20:46:05.429Z,29.23
2019-02-18T20:48:33.444Z,29.25
2019-02-18T20:51:08.976Z,32.05
2019-02-18T20:53:37.002Z,30.82
2019-02-18T20:56:05.031Z,30.75
2019-02-18T20:58:33.055Z,32.05
2019-02-18T21:01:01.348Z,33.58
2019-02-18T21:03:30.335Z,33.42
2019-02-18T21:05:58.369Z,33.50
2019-02-18T21:08:26.403Z,32.55
2019-02-18T21:10:54.441Z,29.15
2019-02-18T21:13:22.487Z,28.25
2019-02-18T21:15:50.743Z,30.62
2019-02-18T21:18:19.100Z,28.35
2019-02-18T21:20:47.138Z,30.27
2019-02-18T21:23:15.171Z,29.57
2019-02-18T21:25:44.279Z,30.65
2019-02-18T21:28:12.303Z,32.33
2019-02-18T21:30:40.369Z,34.33
2019-02-18T21:33:09.725Z,31.87
2019-02-18T21:35:37.800Z,32.48
2019-02-18T21:38:05.832Z,29.52
2019-02-18T21:40:33.860Z,24.70
2019-02-18T21:43:01.910Z,29.20
2019-02-18T21:45:30.016Z,26.42
2019-02-18T21:47:58.116Z,32.55
2019-02-18T21:50:26.238Z,27.10
2019-02-18T21:52:54.278Z,27.62
2019-02-18T21:55:22.313Z,24.63
2019-02-18T21:57:50.557Z,29.63
2019-02-18T22:00:22.817Z,29.57
2019-02-18T22:02:50.898Z,30.37
2019-02-18T22:05:18.978Z,27.58
2019-02-18T22:07:48.170Z,22.98
2019-02-18T22:10:16.195Z,27.98
2019-02-18T22:12:44.545Z,30.57
2019-02-18T22:15:13.548Z,31.82
2019-02-18T22:17:41.796Z,31.10
2019-02-18T22:20:10.809Z,31.30
2019-02-18T22:22:38.840Z,29.07
2019-02-18T22:25:13.051Z,26.42
2019-02-18T22:27:41.091Z,30.45
2019-02-18T22:30:13.223Z,26.68
2019-02-18T22:32:41.247Z,29.18
2019-02-18T22:35:09.336Z,30.45
2019-02-18T22:37:37.550Z,30.72
2019-02-18T22:40:06.836Z,31.57
2019-02-18T22:42:34.872Z,32.28
2019-02-18T22:45:03.065Z,31.20
2019-02-18T22:47:31.187Z,29.50
2019-02-18T22:49:59.216Z,29.12
2019-02-18T22:52:27.508Z,28.60
2019-02-18T22:54:55.532Z,25.43
2019-02-18T22:57:23.551Z,27.85
2019-02-18T22:59:51.596Z,32.35
2019-02-18T23:02:19.616Z,26.82
2019-02-18T23:04:47.645Z,33.70
2019-02-18T23:07:15.717Z,28.55
2019-02-18T23:09:43.920Z,31.50
2019-02-18T23:12:13.012Z,28.17
2019-02-18T23:14:41.040Z,31.80
2019-02-18T23:17:09.080Z,32.15
2019-02-18T23:19:37.344Z,26.87
2019-02-18T23:22:05.368Z,30.80
2019-02-18T23:24:33.404Z,34.10
2019-02-18T23:27:01.432Z,32.93
2019-02-18T23:29:29.720Z,32.90
2019-02-18T23:31:57.752Z,29.52
2019-02-18T23:34:25.773Z,30.62
2019-02-18T23:36:53.812Z,29.23
2019-02-18T23:39:21.856Z,28.77
2019-02-18T23:41:49.889Z,33.25
2019-02-18T23:44:17.927Z,28.02
2019-02-18T23:46:46.272Z,32.90
2019-02-18T23:49:14.543Z,29.05
2019-02-18T23:51:42.564Z,30.57
2019-02-18T23:54:10.833Z,30.12
2019-02-18T23:56:38.854Z,29.60
2019-02-18T23:59:06.900Z,30.30
